createdAt,value
2017-06-18T00:00:43.149Z,15.68
2017-06-18T00:03:10.655Z,15.67
2017-06-18T00:05:38.159Z,15.61
2017-06-18T00:08:05.709Z,15.69
2017-06-18T00:10:33.216Z,15.56
2017-06-18T00:13:00.762Z,15.67
2017-06-18T00:15:28.332Z,15.66
2017-06-18T00:17:55.845Z,15.82
2017-06-18T00:20:23.346Z,15.70
2017-06-18T00:22:51.078Z,15.71
2017-06-18T00:25:18.612Z,15.64
2017-06-18T00:27:46.123Z,15.69
2017-06-18T00:30:13.792Z,15.57
2017-06-18T00:32:42.646Z,15.61
2017-06-18T00:35:10.165Z,15.68
2017-06-18T00:37:37.758Z,15.51
2017-06-18T00:40:05.264Z,15.49
2017-06-18T00:42:32.821Z,15.50
2017-06-18T00:45:00.386Z,15.69
2017-06-18T00:47:27.880Z,15.77
2017-06-18T00:49:55.387Z,15.52
2017-06-18T00:52:22.968Z,15.72
2017-06-18T00:54:50.495Z,15.47
2017-06-18T00:57:18.056Z,15.37
2017-06-18T00:59:45.604Z,15.06
2017-06-18T01:02:13.153Z,15.53
2017-06-18T01:04:40.737Z,15.53
2017-06-18T01:07:08.246Z,15.44
2017-06-18T01:09:35.777Z,15.56
2017-06-18T01:12:03.297Z,15.33
2017-06-18T01:14:30.857Z,15.32
2017-06-18T01:16:58.456Z,15.42
2017-06-18T01:19:26.022Z,15.29
2017-06-18T01:21:53.542Z,15.24
2017-06-18T01:24:21.090Z,15.26
2017-06-18T01:26:48.607Z,15.26
2017-06-18T01:29:16.101Z,15.39
2017-06-18T01:31:43.662Z,15.32
2017-06-18T01:34:11.479Z,15.46
2017-06-18T01:36:38.991Z,15.48
2017-06-18T01:39:06.560Z,15.53
2017-06-18T01:41:34.062Z,15.62
2017-06-18T01:44:01.689Z,15.52
2017-06-18T01:46:29.240Z,15.44
2017-06-18T01:48:56.789Z,15.57
2017-06-18T01:51:24.294Z,15.54
2017-06-18T01:53:52.003Z,15.52
2017-06-18T01:56:19.820Z,15.45
2017-06-18T01:58:47.324Z,15.47
2017-06-18T02:01:14.857Z,15.59
2017-06-18T02:03:42.427Z,15.50
2017-06-18T02:06:09.944Z,15.62
2017-06-18T02:08:37.481Z,15.41
2017-06-18T02:11:05.068Z,15.39
2017-06-18T02:13:32.618Z,15.42
2017-06-18T02:16:00.218Z,15.49
2017-06-18T02:18:27.749Z,15.32
2017-06-18T02:20:55.265Z,15.39
2017-06-18T02:23:22.813Z,15.35
2017-06-18T02:25:50.338Z,15.37
2017-06-18T02:28:17.901Z,15.42
2017-06-18T02:30:45.464Z,15.13
2017-06-18T02:33:12.986Z,15.30
2017-06-18T02:35:40.509Z,15.37
2017-06-18T02:38:08.051Z,15.28
2017-06-18T02:40:35.573Z,15.53
2017-06-18T02:43:03.072Z,15.69
2017-06-18T02:45:30.660Z,15.53
2017-06-18T02:47:58.187Z,15.70
2017-06-18T02:50:25.749Z,15.80
2017-06-18T02:52:53.291Z,15.78
2017-06-18T02:55:20.789Z,15.79
2017-06-18T02:57:48.617Z,15.68
2017-06-18T03:00:16.290Z,15.82
2017-06-18T03:02:43.784Z,15.96
2017-06-18T03:05:11.309Z,15.58
2017-06-18T03:07:38.848Z,15.59
2017-06-18T03:10:18.254Z,15.62
2017-06-18T03:12:45.772Z,15.32
2017-06-18T03:15:13.261Z,15.61
2017-06-18T03:17:40.770Z,15.65
2017-06-18T03:20:08.310Z,15.47
2017-06-18T03:22:35.841Z,15.69
2017-06-18T03:25:03.353Z,15.62
2017-06-18T03:27:30.959Z,15.51
2017-06-18T03:29:58.483Z,15.42
2017-06-18T03:32:26.006Z,15.44
2017-06-18T03:34:53.529Z,15.52
2017-06-18T03:37:21.032Z,15.49
2017-06-18T03:39:48.579Z,15.69
2017-06-18T03:42:16.081Z,15.63
2017-06-18T03:44:43.580Z,15.72
2017-06-18T03:47:11.107Z,15.57
2017-06-18T03:49:38.641Z,15.53
2017-06-18T03:52:06.194Z,15.53
2017-06-18T03:54:33.989Z,15.77
2017-06-18T03:57:01.548Z,15.65
2017-06-18T03:59:29.061Z,15.49
2017-06-18T04:01:56.620Z,15.57
2017-06-18T04:04:24.174Z,15.45
2017-06-18T04:06:51.706Z,15.56
2017-06-18T04:09:19.261Z,15.41
2017-06-18T04:11:46.761Z,15.59
2017-06-18T04:14:14.284Z,15.50
2017-06-18T04:16:41.837Z,15.69
2017-06-18T04:19:09.341Z,15.38
2017-06-18T04:21:36.858Z,15.46
2017-06-18T04:24:04.396Z,15.38
2017-06-18T04:26:31.931Z,15.30
2017-06-18T04:28:59.430Z,15.33
2017-06-18T04:31:27.025Z,15.48
2017-06-18T04:33:54.557Z,15.68
2017-06-18T04:36:22.192Z,15.83
2017-06-18T04:38:49.737Z,15.78
2017-06-18T04:41:17.272Z,15.56
2017-06-18T04:43:44.771Z,16.01
2017-06-18T04:46:12.346Z,15.72
2017-06-18T04:48:39.841Z,15.84
2017-06-18T04:51:07.348Z,15.64
2017-06-18T04:53:34.943Z,15.73
2017-06-18T04:56:02.484Z,15.67
2017-06-18T04:58:29.987Z,15.51
2017-06-18T05:00:57.570Z,15.89
2017-06-18T05:03:25.072Z,16.05
2017-06-18T05:05:52.634Z,16.31
2017-06-18T05:08:20.242Z,15.99
2017-06-18T05:10:47.794Z,15.93
2017-06-18T05:13:15.354Z,15.60
2017-06-18T05:15:42.938Z,15.79
2017-06-18T05:18:10.442Z,15.67
2017-06-18T05:20:37.968Z,15.99
2017-06-18T05:23:05.528Z,15.88
2017-06-18T05:25:33.035Z,15.89
2017-06-18T05:28:00.533Z,15.21
2017-06-18T05:30:28.197Z,15.79
2017-06-18T05:32:55.758Z,15.87
2017-06-18T05:35:23.264Z,16.07
2017-06-18T05:37:50.816Z,16.06
2017-06-18T05:40:18.329Z,16.11
2017-06-18T05:42:45.827Z,15.97
2017-06-18T05:45:13.357Z,15.86
2017-06-18T05:47:40.870Z,15.92
2017-06-18T05:50:08.409Z,16.06
2017-06-18T05:52:35.996Z,16.14
2017-06-18T05:55:03.567Z,16.31
2017-06-18T05:57:31.081Z,16.25
2017-06-18T05:59:58.708Z,15.92
2017-06-18T06:02:26.266Z,15.78
2017-06-18T06:04:53.778Z,16.00
2017-06-18T06:07:21.276Z,16.17
2017-06-18T06:09:48.842Z,15.97
2017-06-18T06:12:16.422Z,16.00
2017-06-18T06:14:43.941Z,16.00
2017-06-18T06:17:11.561Z,15.96
2017-06-18T06:19:40.422Z,15.99
2017-06-18T06:22:08.292Z,16.10
2017-06-18T06:24:35.835Z,16.26
2017-06-18T06:27:03.381Z,16.24
2017-06-18T06:29:30.893Z,16.42
2017-06-18T06:31:58.439Z,16.40
2017-06-18T06:34:25.973Z,16.18
2017-06-18T06:36:53.473Z,16.21
2017-06-18T06:39:21.004Z,16.03
2017-06-18T06:41:48.505Z,15.89
2017-06-18T06:44:16.008Z,16.34
2017-06-18T06:46:43.614Z,16.15
2017-06-18T06:49:11.176Z,16.20
2017-06-18T06:51:44.227Z,16.31
2017-06-18T06:54:12.995Z,16.73
2017-06-18T06:56:40.529Z,17.09
2017-06-18T06:59:08.065Z,16.75
2017-06-18T07:01:35.600Z,16.52
2017-06-18T07:04:03.105Z,16.63
2017-06-18T07:06:30.692Z,16.45
2017-06-18T07:08:58.313Z,16.19
2017-06-18T07:11:25.825Z,16.32
2017-06-18T07:13:54.380Z,16.72
2017-06-18T07:16:22.180Z,16.76
2017-06-18T07:18:49.707Z,16.44
2017-06-18T07:21:17.458Z,16.37
2017-06-18T07:23:44.994Z,16.31
2017-06-18T07:26:12.551Z,16.40
2017-06-18T07:28:40.059Z,16.62
2017-06-18T07:31:07.619Z,16.70
2017-06-18T07:33:35.144Z,16.84
2017-06-18T07:36:02.698Z,16.39
2017-06-18T07:38:30.253Z,16.74
2017-06-18T07:40:57.807Z,16.59
2017-06-18T07:43:25.381Z,16.50
2017-06-18T07:45:52.926Z,16.41
2017-06-18T07:48:20.437Z,16.40
2017-06-18T07:50:48.011Z,16.52
2017-06-18T07:53:15.543Z,16.63
2017-06-18T07:55:43.045Z,16.77
2017-06-18T07:58:10.535Z,16.56
2017-06-18T08:00:38.074Z,16.72
2017-06-18T08:03:05.594Z,16.66
2017-06-18T08:05:33.097Z,16.67
2017-06-18T08:08:00.715Z,16.78
2017-06-18T08:10:28.279Z,16.79
2017-06-18T08:12:55.871Z,17.14
2017-06-18T08:15:23.486Z,16.95
2017-06-18T08:17:51.071Z,17.11
2017-06-18T08:20:18.615Z,16.86
2017-06-18T08:22:46.202Z,16.92
2017-06-18T08:25:13.730Z,17.04
2017-06-18T08:27:41.254Z,17.12
2017-06-18T08:30:09.009Z,17.04
2017-06-18T08:32:36.528Z,16.97
2017-06-18T08:35:04.038Z,17.40
2017-06-18T08:37:31.617Z,17.49
2017-06-18T08:39:59.117Z,17.80
2017-06-18T08:42:26.677Z,17.56
2017-06-18T08:44:54.292Z,17.43
2017-06-18T08:47:21.795Z,17.34
2017-06-18T08:49:49.353Z,17.59
2017-06-18T08:52:16.913Z,17.44
2017-06-18T08:54:44.443Z,17.81
2017-06-18T08:57:11.957Z,17.62
2017-06-18T08:59:39.521Z,17.39
2017-06-18T09:02:10.472Z,17.09
2017-06-18T09:04:38.337Z,17.09
2017-06-18T09:07:05.909Z,17.12
2017-06-18T09:09:34.764Z,17.23
2017-06-18T09:12:02.361Z,17.25
2017-06-18T09:14:29.922Z,17.21
2017-06-18T09:16:57.532Z,17.25
2017-06-18T09:19:25.115Z,17.49
2017-06-18T09:21:52.635Z,17.60
2017-06-18T09:24:20.261Z,17.81
2017-06-18T09:26:47.829Z,17.93
2017-06-18T09:29:15.356Z,17.82
2017-06-18T09:31:42.888Z,17.70
2017-06-18T09:34:10.405Z,17.93
2017-06-18T09:36:37.910Z,18.61
2017-06-18T09:39:05.470Z,18.52
2017-06-18T09:41:33.053Z,17.90
2017-06-18T09:44:01.266Z,17.78
2017-06-18T09:46:28.800Z,17.75
2017-06-18T09:48:56.316Z,17.85
2017-06-18T09:51:23.829Z,18.05
2017-06-18T09:53:51.704Z,18.37
2017-06-18T09:56:19.557Z,18.33
2017-06-18T09:58:47.057Z,18.26
2017-06-18T10:01:14.599Z,18.18
2017-06-18T10:03:42.109Z,18.35
2017-06-18T10:06:10.102Z,18.17
2017-06-18T10:08:38.513Z,18.06
2017-06-18T10:11:06.435Z,17.95
2017-06-18T10:13:34.038Z,18.13
2017-06-18T10:16:01.609Z,17.98
2017-06-18T10:18:29.157Z,17.90
2017-06-18T10:20:59.129Z,17.97
2017-06-18T10:23:28.127Z,18.00
2017-06-18T10:26:03.042Z,17.97
2017-06-18T10:28:30.686Z,17.77
2017-06-18T10:31:00.130Z,17.62
2017-06-18T10:33:33.908Z,18.03
2017-06-18T10:36:02.600Z,18.10
2017-06-18T10:38:30.898Z,18.05
2017-06-18T10:41:03.971Z,18.44
2017-06-18T10:43:31.688Z,18.48
2017-06-18T10:45:59.194Z,18.15
2017-06-18T10:48:26.813Z,17.66
2017-06-18T10:50:54.436Z,17.78
2017-06-18T10:53:21.937Z,17.97
2017-06-18T10:55:53.294Z,17.86
2017-06-18T10:58:20.932Z,17.80
2017-06-18T11:00:49.786Z,18.55
2017-06-18T11:03:17.685Z,18.78
2017-06-18T11:05:46.476Z,18.64
2017-06-18T11:08:14.773Z,19.34
2017-06-18T11:10:44.335Z,19.32
2017-06-18T11:13:14.257Z,19.09
2017-06-18T11:15:41.866Z,19.00
2017-06-18T11:18:10.618Z,19.00
2017-06-18T11:20:39.638Z,18.92
2017-06-18T11:23:07.312Z,19.04
2017-06-18T11:25:37.143Z,19.56
2017-06-18T11:28:11.876Z,19.51
2017-06-18T11:30:43.921Z,19.90
2017-06-18T11:33:14.735Z,19.48
2017-06-18T11:35:43.996Z,19.36
2017-06-18T11:38:24.066Z,19.82
2017-06-18T11:41:01.929Z,19.94
2017-06-18T11:46:07.617Z,19.64
2017-06-18T11:48:35.553Z,19.91
2017-06-18T11:51:03.086Z,20.02
2017-06-18T11:53:30.632Z,19.76
2017-06-18T11:55:58.211Z,19.65
2017-06-18T11:58:26.781Z,18.84
2017-06-18T12:00:54.508Z,19.81
2017-06-18T12:03:29.728Z,19.51
2017-06-18T12:06:06.093Z,19.51
2017-06-18T12:08:34.255Z,18.93
2017-06-18T12:11:04.647Z,19.09
2017-06-18T12:13:32.296Z,18.70
2017-06-18T12:15:59.883Z,18.84
2017-06-18T12:19:04.880Z,18.25
2017-06-18T12:21:32.898Z,18.68
2017-06-18T12:24:00.646Z,18.91
2017-06-18T12:26:29.545Z,19.27
2017-06-18T12:28:58.912Z,19.02
2017-06-18T12:31:30.359Z,19.56
2017-06-18T12:33:58.011Z,18.87
2017-06-18T12:36:29.490Z,19.06
2017-06-18T12:39:00.562Z,19.18
2017-06-18T12:41:28.105Z,18.74
2017-06-18T12:44:00.574Z,19.33
2017-06-18T12:46:38.543Z,18.90
2017-06-18T12:49:14.526Z,19.03
2017-06-18T12:51:42.539Z,19.63
2017-06-18T12:54:10.375Z,19.55
2017-06-18T12:56:44.497Z,19.95
2017-06-18T12:59:12.186Z,19.55
2017-06-18T13:01:39.784Z,19.46
2017-06-18T13:04:12.863Z,19.23
2017-06-18T13:06:41.203Z,18.70
2017-06-18T13:09:10.091Z,18.87
2017-06-18T13:11:43.370Z,18.89
2017-06-18T13:14:11.207Z,19.16
2017-06-18T13:16:39.722Z,19.24
2017-06-18T13:19:07.295Z,18.89
2017-06-18T13:21:42.367Z,19.14
2017-06-18T13:24:09.912Z,18.99
2017-06-18T13:26:37.449Z,18.62
2017-06-18T13:29:11.960Z,18.67
2017-06-18T13:31:39.577Z,18.36
2017-06-18T13:34:13.302Z,18.65
2017-06-18T13:36:41.530Z,18.33
2017-06-18T13:39:11.448Z,18.46
2017-06-18T13:41:39.361Z,18.29
2017-06-18T13:44:12.031Z,17.94
2017-06-18T13:46:39.732Z,18.23
2017-06-18T13:49:11.750Z,18.47
2017-06-18T13:51:39.265Z,18.57
2017-06-18T13:54:07.017Z,18.42
2017-06-18T13:56:37.601Z,18.63
2017-06-18T13:59:05.433Z,19.08
2017-06-18T14:01:33.622Z,18.96
2017-06-18T14:04:06.293Z,18.56
2017-06-18T14:06:35.261Z,18.83
2017-06-18T14:09:02.947Z,18.58
2017-06-18T14:11:32.213Z,18.58
2017-06-18T14:13:59.853Z,18.52
2017-06-18T14:16:32.376Z,18.53
2017-06-18T14:46:15.184Z,17.81
2017-06-18T14:48:48.386Z,18.15
2017-06-18T14:51:19.792Z,18.08
2017-06-18T14:53:47.293Z,17.89
2017-06-18T14:56:14.789Z,18.60
2017-06-18T14:58:52.861Z,18.44
2017-06-18T15:01:20.401Z,18.30
2017-06-18T15:03:49.923Z,18.43
2017-06-18T15:06:20.379Z,18.37
2017-06-18T15:08:48.117Z,18.72
2017-06-18T15:11:18.649Z,18.10
2017-06-18T15:13:46.473Z,18.59
2017-06-18T15:16:14.062Z,18.52
2017-06-18T15:18:42.339Z,18.60
2017-06-18T15:21:09.999Z,18.28
2017-06-18T15:23:37.513Z,18.26
2017-06-18T15:26:10.502Z,18.34
2017-06-18T15:28:38.136Z,18.56
2017-06-18T15:31:05.742Z,18.40
2017-06-18T15:33:33.500Z,18.66
2017-06-18T15:36:01.007Z,18.45
2017-06-18T15:38:28.589Z,18.43
2017-06-18T15:40:56.448Z,18.14
2017-06-18T15:43:23.949Z,18.50
2017-06-18T15:45:51.584Z,18.21
2017-06-18T15:48:19.169Z,18.25
2017-06-18T15:50:46.720Z,18.15
2017-06-18T15:53:14.338Z,18.13
2017-06-18T15:55:41.949Z,18.23
2017-06-18T15:58:09.467Z,17.97
2017-06-18T16:00:37.123Z,17.75
2017-06-18T16:03:04.653Z,17.97
2017-06-18T16:05:32.459Z,17.97
2017-06-18T16:08:04.483Z,17.82
2017-06-18T16:15:22.735Z,17.29
2017-06-18T16:17:50.765Z,17.45
2017-06-18T16:20:18.340Z,17.85
2017-06-18T16:22:46.035Z,17.88
2017-06-18T16:25:13.804Z,17.73
2017-06-18T16:27:41.312Z,17.60
2017-06-18T16:30:09.718Z,18.03
2017-06-18T16:32:37.212Z,18.14
2017-06-18T16:35:05.186Z,18.21
2017-06-18T16:37:33.056Z,18.11
2017-06-18T16:40:00.709Z,17.46
2017-06-18T16:42:28.249Z,17.45
2017-06-18T16:44:56.813Z,17.15
2017-06-18T16:47:27.758Z,17.61
2017-06-18T16:49:59.783Z,17.92
2017-06-18T16:52:27.368Z,17.70
2017-06-18T16:54:55.546Z,17.93
2017-06-18T16:57:23.316Z,17.81
2017-06-18T16:59:50.857Z,17.57
2017-06-18T17:02:18.632Z,17.64
2017-06-18T17:04:46.359Z,17.89
2017-06-18T17:07:13.925Z,17.77
2017-06-18T17:09:41.837Z,17.51
2017-06-18T17:12:09.423Z,17.77
2017-06-18T17:14:37.006Z,17.63
2017-06-18T17:17:04.591Z,17.62
2017-06-18T17:19:32.211Z,17.83
2017-06-18T17:22:05.719Z,17.69
2017-06-18T17:24:33.382Z,17.18
2017-06-18T17:27:00.996Z,17.45
2017-06-18T17:29:28.662Z,17.59
2017-06-18T17:31:57.173Z,17.70
2017-06-18T17:34:24.946Z,17.99
2017-06-18T17:36:52.511Z,17.88
2017-06-18T17:39:20.144Z,17.94
2017-06-18T17:41:47.780Z,17.74
2017-06-18T17:44:15.364Z,17.82
2017-06-18T17:46:43.028Z,17.86
2017-06-18T17:49:10.647Z,17.82
2017-06-18T17:51:38.294Z,17.74
2017-06-18T17:54:09.297Z,17.76
2017-06-18T17:56:36.945Z,17.83
2017-06-18T17:59:04.587Z,17.66
2017-06-18T18:01:32.297Z,17.77
2017-06-18T18:04:03.681Z,17.65
2017-06-18T18:06:31.338Z,17.52
2017-06-18T18:09:00.756Z,17.52
2017-06-18T18:11:28.504Z,17.36
2017-06-18T18:13:56.234Z,17.64
2017-06-18T18:16:23.994Z,17.62
2017-06-18T18:18:55.783Z,17.56
2017-06-18T18:21:26.053Z,17.36
2017-06-18T18:24:02.965Z,17.40
2017-06-18T18:26:35.058Z,17.61
2017-06-18T18:29:02.874Z,17.42
2017-06-18T18:34:12.259Z,17.43
2017-06-18T18:36:42.452Z,17.02
2017-06-18T18:39:14.561Z,17.07
2017-06-18T18:41:46.231Z,17.25
2017-06-18T18:44:32.697Z,17.02
2017-06-18T18:47:03.086Z,16.83
2017-06-18T18:49:35.529Z,16.95
2017-06-18T18:52:08.730Z,17.12
2017-06-18T18:54:38.422Z,17.00
2017-06-18T18:57:07.843Z,16.93
2017-06-18T18:59:37.561Z,17.23
2017-06-18T19:02:07.994Z,16.91
2017-06-18T19:04:38.121Z,16.81
2017-06-18T19:07:08.884Z,16.65
2017-06-18T19:09:39.716Z,16.98
2017-06-18T19:12:07.605Z,17.31
2017-06-18T19:14:36.367Z,17.08
2017-06-18T19:17:04.100Z,17.04
2017-06-18T19:19:31.793Z,17.08
2017-06-18T19:22:01.387Z,16.85
2017-06-18T19:24:36.835Z,16.62
2017-06-18T19:27:07.992Z,16.67
2017-06-18T19:29:38.160Z,16.98
2017-06-18T19:32:11.928Z,17.07
2017-06-18T19:34:43.186Z,17.26
2017-06-18T19:37:15.238Z,17.24
2017-06-18T19:39:45.846Z,17.02
2017-06-18T19:42:17.555Z,16.85
2017-06-18T19:44:49.960Z,16.67
2017-06-18T19:47:40.346Z,16.90
2017-06-18T19:50:09.493Z,17.14
2017-06-18T19:52:54.157Z,17.26
2017-06-18T19:58:15.668Z,17.13
2017-06-18T20:00:43.382Z,17.09
2017-06-18T20:06:42.897Z,17.18
2017-06-18T20:09:15.446Z,17.28
2017-06-18T20:11:50.305Z,16.97
2017-06-18T20:14:20.272Z,17.10
2017-06-18T20:16:48.568Z,17.22
2017-06-18T20:19:19.655Z,17.31
2017-06-18T20:21:47.512Z,16.96
2017-06-18T20:24:16.591Z,17.00
2017-06-18T20:26:44.491Z,17.14
2017-06-18T20:29:13.386Z,17.00
2017-06-18T20:31:41.827Z,17.11
2017-06-18T20:34:09.402Z,17.27
2017-06-18T20:36:36.982Z,16.91
2017-06-18T20:39:05.440Z,17.08
2017-06-18T20:41:32.945Z,17.17
2017-06-18T20:44:00.560Z,17.07
2017-06-18T20:46:31.129Z,16.97
2017-06-18T20:48:59.317Z,17.07
2017-06-18T20:51:27.172Z,17.10
2017-06-18T20:53:55.676Z,16.64
2017-06-18T20:56:23.707Z,16.63
2017-06-18T20:58:51.632Z,16.78
2017-06-18T21:01:19.376Z,16.26
2017-06-18T21:03:47.383Z,16.62
2017-06-18T21:06:15.267Z,16.53
2017-06-18T21:08:45.475Z,16.81
2017-06-18T21:11:18.778Z,16.58
2017-06-18T21:13:48.059Z,16.51
2017-06-18T21:16:15.769Z,16.85
2017-06-18T21:18:44.867Z,16.88
2017-06-18T21:21:13.911Z,16.89
2017-06-18T21:23:56.572Z,16.92
2017-06-18T21:26:29.444Z,16.78
2017-06-18T21:29:03.060Z,16.71
2017-06-18T21:31:34.626Z,16.64
2017-06-18T21:34:09.634Z,16.55
2017-06-18T21:36:47.028Z,16.49
2017-06-18T21:39:21.115Z,16.36
2017-06-18T21:41:55.025Z,16.39
2017-06-18T21:44:26.740Z,16.68
2017-06-18T21:46:55.578Z,16.58
2017-06-18T21:49:23.258Z,16.52
2017-06-18T21:52:10.936Z,16.79
2017-06-18T21:54:44.694Z,16.75
2017-06-18T21:57:19.425Z,16.99
2017-06-18T21:59:51.877Z,16.80
2017-06-18T22:02:21.763Z,16.90
2017-06-18T22:04:52.487Z,16.85
2017-06-18T22:07:28.477Z,16.55
2017-06-18T22:09:59.633Z,16.88
2017-06-18T22:12:33.214Z,16.92
2017-06-18T22:15:03.511Z,16.86
2017-06-18T22:17:36.984Z,16.63
2017-06-18T22:20:13.189Z,16.77
2017-06-18T22:22:49.512Z,16.88
2017-06-18T22:28:01.178Z,16.94
2017-06-18T22:30:36.421Z,16.86
2017-06-18T22:33:04.109Z,16.98
2017-06-18T22:35:31.645Z,16.97
2017-06-18T22:37:59.201Z,16.75
2017-06-18T22:40:27.618Z,16.70
2017-06-18T22:42:59.273Z,16.75
2017-06-18T22:45:29.427Z,16.77
2017-06-18T22:50:36.739Z,16.67
2017-06-18T22:53:09.855Z,16.75
2017-06-18T22:55:51.415Z,16.83
2017-06-18T22:58:26.217Z,16.88
2017-06-18T23:01:15.349Z,16.85
2017-06-18T23:03:48.406Z,16.86
2017-06-18T23:06:25.099Z,16.90
2017-06-18T23:08:57.544Z,16.86
2017-06-18T23:11:25.544Z,17.00
2017-06-18T23:13:57.034Z,17.01
2017-06-18T23:16:25.494Z,16.97
2017-06-18T23:18:53.224Z,17.11
2017-06-18T23:21:27.651Z,16.92
2017-06-18T23:23:59.959Z,16.98
2017-06-18T23:26:36.603Z,17.01
2017-06-18T23:29:23.430Z,17.06
2017-06-18T23:31:57.897Z,17.02
2017-06-18T23:34:26.001Z,17.00
2017-06-18T23:37:01.478Z,16.85
2017-06-18T23:39:35.273Z,17.08
2017-06-18T23:42:09.993Z,16.77
2017-06-18T23:44:54.831Z,16.36
2017-06-18T23:47:38.754Z,16.96
2017-06-18T23:50:20.170Z,17.15
2017-06-18T23:56:09.705Z,16.88
2017-06-18T23:58:38.254Z,16.70
